createdAt,value
2022-12-15T04:37:28.817Z,19.55
2022-12-15T04:53:42.400Z,24.48
2022-12-15T04:57:04.838Z,22.48
2022-12-15T05:00:03.865Z,24.83
2022-12-15T05:21:22.355Z,31.08
2022-12-15T05:24:16.824Z,24.40
2022-12-15T05:30:28.522Z,18.85
2022-12-15T05:32:55.641Z,22.73
2022-12-15T05:35:23.295Z,20.88
2022-12-15T05:37:57.559Z,23.13
2022-12-15T05:41:13.221Z,23.35
2022-12-15T05:44:17.692Z,20.13
2022-12-15T05:50:27.319Z,20.60
2022-12-15T05:53:23.378Z,17.00
2022-12-15T05:56:03.084Z,15.20
2022-12-15T05:58:50.133Z,15.23
2022-12-15T06:01:34.855Z,26.17
2022-12-15T06:04:07.688Z,24.42
2022-12-15T06:06:45.691Z,24.58
2022-12-15T06:09:30.989Z,22.55
2022-12-15T06:12:04.397Z,20.88
2022-12-15T06:14:38.581Z,19.77
2022-12-15T06:17:18.981Z,23.33
2022-12-15T06:23:54.357Z,27.23
2022-12-15T06:27:05.481Z,22.08
2022-12-15T06:29:36.886Z,23.10
2022-12-15T06:32:09.656Z,19.73
2022-12-15T06:34:37.024Z,19.35
2022-12-15T06:37:04.501Z,28.92
2022-12-15T06:39:31.524Z,17.70
2022-12-15T06:41:58.442Z,19.77
2022-12-15T06:44:25.412Z,21.75
2022-12-15T06:46:52.379Z,16.83
2022-12-15T06:49:19.365Z,21.40
2022-12-15T06:51:46.255Z,26.73
2022-12-15T06:54:13.412Z,23.63
2022-12-15T06:56:40.432Z,21.38
2022-12-15T06:59:08.249Z,19.67
2022-12-15T07:01:35.887Z,22.25
2022-12-15T07:04:05.622Z,19.35
2022-12-15T07:06:38.372Z,22.35
2022-12-15T07:09:08.248Z,19.60
2022-12-15T07:11:35.674Z,21.83
2022-12-15T07:14:03.294Z,23.33
2022-12-15T07:16:31.204Z,24.30
2022-12-15T07:18:58.328Z,20.13
2022-12-15T07:21:25.252Z,22.13
2022-12-15T07:23:55.861Z,25.60
2022-12-15T07:26:23.733Z,23.30
2022-12-15T07:28:50.939Z,25.38
2022-12-15T07:31:18.203Z,25.23
2022-12-15T07:33:45.508Z,22.60
2022-12-15T07:36:13.165Z,23.77
2022-12-15T07:38:40.149Z,24.42
2022-12-15T07:41:08.565Z,24.27
2022-12-15T07:43:36.420Z,25.08
2022-12-15T07:46:05.154Z,23.90
2022-12-15T07:48:33.096Z,24.40
2022-12-15T07:51:10.888Z,24.55
2022-12-15T07:53:40.110Z,26.25
2022-12-15T07:56:09.601Z,20.42
2022-12-15T07:58:38.444Z,22.77
2022-12-15T08:01:10.522Z,24.35
2022-12-15T08:03:38.840Z,26.48
2022-12-15T08:06:10.142Z,30.05
2022-12-15T08:08:37.482Z,28.48
2022-12-15T08:11:10.427Z,22.00
2022-12-15T08:14:01.837Z,19.58
2022-12-15T08:16:26.585Z,23.38
2022-12-15T08:18:54.031Z,21.05
2022-12-15T08:21:21.168Z,26.95
2022-12-15T08:23:48.238Z,25.65
2022-12-15T08:26:18.446Z,25.83
2022-12-15T08:28:46.412Z,27.15
2022-12-15T08:31:23.425Z,22.48
2022-12-15T08:33:51.013Z,23.58
2022-12-15T08:36:20.440Z,25.38
2022-12-15T08:38:47.817Z,25.25
2022-12-15T08:41:19.614Z,27.70
2022-12-15T08:43:49.392Z,24.80
2022-12-15T08:46:19.679Z,26.52
2022-12-15T08:48:47.270Z,24.25
2022-12-15T08:51:14.898Z,27.00
2022-12-15T08:53:42.126Z,28.05
2022-12-15T08:56:13.380Z,32.83
2022-12-15T08:58:40.668Z,28.20
2022-12-15T09:01:23.347Z,28.05
2022-12-15T09:03:53.686Z,24.50
2022-12-15T09:06:30.958Z,21.25
2022-12-15T09:09:01.311Z,23.30
2022-12-15T09:11:30.349Z,24.60
2022-12-15T09:13:58.179Z,20.13
2022-12-15T09:16:26.288Z,18.88
2022-12-15T09:18:55.975Z,20.73
2022-12-15T09:21:27.739Z,20.92
2022-12-15T09:24:00.653Z,21.75
2022-12-15T09:26:33.995Z,18.58
2022-12-15T09:29:02.011Z,21.08
2022-12-15T09:31:32.788Z,19.13
2022-12-15T09:34:02.326Z,18.10
2022-12-15T09:36:32.741Z,24.50
2022-12-15T09:39:02.205Z,22.40
2022-12-15T09:41:33.598Z,19.92
2022-12-15T09:44:23.707Z,19.98
2022-12-15T09:46:59.724Z,18.30
2022-12-15T09:49:47.724Z,18.48
2022-12-15T09:52:20.222Z,19.77
2022-12-15T09:54:47.477Z,20.48
2022-12-15T09:57:40.980Z,19.15
2022-12-15T10:00:21.765Z,20.58
2022-12-15T10:03:34.290Z,19.05
2022-12-15T10:06:16.560Z,18.52
2022-12-15T10:08:59.261Z,19.40
2022-12-15T10:11:54.956Z,17.77
2022-12-15T10:14:54.512Z,16.25
2022-12-15T10:17:34.506Z,19.10
2022-12-15T10:20:24.436Z,22.73
2022-12-15T10:22:51.495Z,17.13
2022-12-15T10:25:29.798Z,19.70
2022-12-15T10:28:39.061Z,16.17
2022-12-15T10:31:35.567Z,18.52
2022-12-15T10:34:13.461Z,18.98
2022-12-15T10:36:51.020Z,20.40
2022-12-15T10:39:18.382Z,21.38
2022-12-15T10:41:45.361Z,18.25
2022-12-15T10:44:32.057Z,19.15
2022-12-15T10:47:09.225Z,16.63
2022-12-15T10:49:36.094Z,20.17
2022-12-15T10:52:03.215Z,16.70
2022-12-15T10:54:36.775Z,15.35
2022-12-15T10:57:31.624Z,17.27
2022-12-15T11:00:13.918Z,15.13
2022-12-15T11:02:42.396Z,14.25
2022-12-15T11:05:16.014Z,17.17
2022-12-15T11:07:47.724Z,16.05
2022-12-15T11:10:24.932Z,15.73
2022-12-15T11:13:20.468Z,12.57
2022-12-15T11:15:56.550Z,17.05
2022-12-15T11:18:39.021Z,17.13
2022-12-15T11:21:17.795Z,19.20
2022-12-15T11:24:17.428Z,17.10
2022-12-15T11:27:03.205Z,17.98
2022-12-15T11:30:18.494Z,23.08
2022-12-15T11:32:53.526Z,18.67
2022-12-15T11:35:50.823Z,21.00
2022-12-15T11:38:44.459Z,23.35
2022-12-15T11:41:37.255Z,16.00
2022-12-15T11:44:14.389Z,20.45
2022-12-15T11:47:18.893Z,16.38
2022-12-15T11:50:12.027Z,15.98
2022-12-15T11:52:57.331Z,20.60
2022-12-15T11:56:03.057Z,20.60
2022-12-15T11:58:44.537Z,19.95
2022-12-15T12:01:38.364Z,18.10
2022-12-15T12:04:21.406Z,18.65
2022-12-15T12:07:06.340Z,18.58
2022-12-15T12:10:10.113Z,12.70
2022-12-15T12:12:47.619Z,15.60
2022-12-15T12:15:43.398Z,22.27
2022-12-15T12:18:26.283Z,20.48
2022-12-15T12:21:26.829Z,16.70
2022-12-15T12:24:19.324Z,15.88
2022-12-15T12:27:20.350Z,15.82
2022-12-15T12:30:00.422Z,19.90
2022-12-15T12:33:06.641Z,19.65
2022-12-15T12:35:45.153Z,18.10
2022-12-15T12:38:13.698Z,15.27
2022-12-15T12:40:40.529Z,17.77
2022-12-15T12:46:15.750Z,18.77
2022-12-15T12:48:53.149Z,19.75
2022-12-15T12:51:36.153Z,19.42
2022-12-15T12:54:03.633Z,26.52
2022-12-15T12:56:39.253Z,17.95
2022-12-15T12:59:30.869Z,19.75
2022-12-15T13:02:21.711Z,19.98
2022-12-15T13:04:58.083Z,24.60
2022-12-15T13:07:43.379Z,22.30
2022-12-15T13:10:20.443Z,22.00
2022-12-15T13:13:00.430Z,20.33
2022-12-15T13:15:27.196Z,19.20
2022-12-15T13:18:13.504Z,22.83
2022-12-15T13:23:20.101Z,18.35
2022-12-15T13:25:55.835Z,21.85
2022-12-15T13:28:42.969Z,25.98
2022-12-15T13:31:19.652Z,20.83
2022-12-15T13:33:49.673Z,22.58
2022-12-15T13:36:41.129Z,22.90
2022-12-15T13:39:17.029Z,23.30
2022-12-15T13:47:28.619Z,21.58
2022-12-15T13:50:08.652Z,27.77
2022-12-15T13:53:18.383Z,24.40
2022-12-15T13:56:19.782Z,21.55
2022-12-15T13:58:56.546Z,32.03
2022-12-15T14:01:32.621Z,28.58
2022-12-15T14:04:21.599Z,23.52
2022-12-15T14:06:56.240Z,30.15
2022-12-15T14:09:36.815Z,28.27
2022-12-15T14:12:07.705Z,22.75
2022-12-15T14:14:43.478Z,25.38
2022-12-15T14:19:46.858Z,25.30
2022-12-15T14:22:27.607Z,28.58
2022-12-15T14:25:22.769Z,24.00
2022-12-15T14:28:01.375Z,29.83
2022-12-15T14:30:33.779Z,33.95
2022-12-15T14:33:09.116Z,31.95
2022-12-15T14:36:05.772Z,31.42
2022-12-15T14:38:58.776Z,23.85
2022-12-15T14:41:35.210Z,24.60
2022-12-15T14:44:37.967Z,30.08
2022-12-15T14:47:27.259Z,33.35
2022-12-15T14:49:56.672Z,25.20
2022-12-15T14:52:34.083Z,27.83
2022-12-15T14:55:31.620Z,27.92
2022-12-15T14:57:59.947Z,29.27
2022-12-15T15:00:30.730Z,27.50
2022-12-15T15:03:07.203Z,20.63
2022-12-15T15:03:11.017Z,26.45
2022-12-15T15:03:20.241Z,27.10
2022-12-15T15:05:53.734Z,25.27
2022-12-15T15:08:33.872Z,30.23
2022-12-15T15:11:19.357Z,26.75
2022-12-15T15:13:46.991Z,24.57
2022-12-15T15:16:19.139Z,31.50
2022-12-15T15:18:51.981Z,26.38
2022-12-15T15:21:24.368Z,29.90
2022-12-15T15:24:21.817Z,27.52
2022-12-15T15:26:48.940Z,29.27
2022-12-15T15:29:41.774Z,30.55
2022-12-15T15:32:21.483Z,30.83
2022-12-15T15:34:49.441Z,29.88
2022-12-15T15:37:25.047Z,29.48
2022-12-15T15:39:54.627Z,34.05
2022-12-15T15:42:25.453Z,34.22
2022-12-15T15:44:57.534Z,34.97
2022-12-15T15:47:26.107Z,27.88
2022-12-15T15:49:55.245Z,34.92
2022-12-15T15:52:22.974Z,29.38
2022-12-15T15:54:52.756Z,31.55
2022-12-15T15:57:19.937Z,27.23
2022-12-15T15:59:47.152Z,31.10
2022-12-15T16:02:15.191Z,26.55
2022-12-15T16:04:44.186Z,30.75
2022-12-15T16:07:25.125Z,32.53
2022-12-15T16:09:53.823Z,35.28
2022-12-15T16:12:36.210Z,33.20
2022-12-15T16:15:12.447Z,37.28
2022-12-15T16:17:39.414Z,30.27
2022-12-15T16:20:07.150Z,35.20
2022-12-15T16:22:34.074Z,30.13
2022-12-15T16:25:01.074Z,32.28
2022-12-15T16:27:28.088Z,31.30
2022-12-15T16:29:54.958Z,33.90
2022-12-15T16:32:22.090Z,30.02
2022-12-15T16:34:49.968Z,33.17
2022-12-15T16:37:39.461Z,32.10
2022-12-15T16:40:24.656Z,32.42
2022-12-15T16:42:55.078Z,30.98
2022-12-15T16:45:24.639Z,35.22
2022-12-15T16:47:52.662Z,29.40
2022-12-15T16:50:25.790Z,32.05
2022-12-15T16:52:57.271Z,31.52
2022-12-15T16:55:35.087Z,29.20
2022-12-15T16:58:09.048Z,30.50
2022-12-15T17:00:42.800Z,30.70
2022-12-15T17:03:18.803Z,36.30
2022-12-15T17:05:53.859Z,34.72
2022-12-15T17:08:27.443Z,31.80
2022-12-15T17:10:54.862Z,32.40
2022-12-15T17:13:41.935Z,34.10
2022-12-15T17:16:14.691Z,30.90
2022-12-15T17:21:52.941Z,36.33
2022-12-15T17:24:22.347Z,32.38
2022-12-15T17:26:49.877Z,34.60
2022-12-15T17:29:23.581Z,39.22
2022-12-15T17:31:51.129Z,32.97
2022-12-15T17:34:34.732Z,34.97
2022-12-15T17:37:04.806Z,35.13
2022-12-15T17:39:36.383Z,34.95
2022-12-15T17:42:16.670Z,39.15
2022-12-15T17:44:46.779Z,35.80
2022-12-15T17:47:17.143Z,36.13
2022-12-15T17:49:44.706Z,35.60
2022-12-15T17:52:29.130Z,37.45
2022-12-15T17:54:57.186Z,32.50
2022-12-15T17:57:26.957Z,38.47
2022-12-15T17:59:54.177Z,39.05
2022-12-15T18:02:22.741Z,41.45
2022-12-15T18:04:50.124Z,29.95
2022-12-15T18:07:23.833Z,35.75
2022-12-15T18:09:52.230Z,34.58
2022-12-15T18:12:25.860Z,36.75
2022-12-15T18:14:54.067Z,36.55
2022-12-15T18:18:22.691Z,41.00
2022-12-15T18:21:41.482Z,33.50
2022-12-15T18:24:15.603Z,45.00
2022-12-15T18:26:44.180Z,34.28
2022-12-15T18:29:18.062Z,39.13
2022-12-15T18:31:49.807Z,37.85
2022-12-15T18:34:21.083Z,39.35
2022-12-15T18:36:50.447Z,34.35
2022-12-15T18:39:23.765Z,39.70
2022-12-15T18:41:52.744Z,39.22
2022-12-15T18:44:27.367Z,41.83
2022-12-15T18:46:55.174Z,41.17
2022-12-15T18:49:23.691Z,38.67
2022-12-15T18:51:50.903Z,32.35
2022-12-15T18:54:22.144Z,43.72
2022-12-15T18:56:50.189Z,47.88
2022-12-15T18:59:19.107Z,40.45
2022-12-15T19:01:48.521Z,46.03
2022-12-15T19:04:16.256Z,41.92
2022-12-15T19:06:44.622Z,35.28
2022-12-15T19:09:19.844Z,40.13
2022-12-15T19:12:17.779Z,43.47
2022-12-15T19:14:47.405Z,47.42
2022-12-15T19:17:39.765Z,43.25
2022-12-15T19:20:36.936Z,39.13
2022-12-15T19:23:05.511Z,39.83
2022-12-15T19:25:33.131Z,32.78
2022-12-15T19:28:01.573Z,35.03
2022-12-15T19:30:41.781Z,44.35
2022-12-15T19:33:13.683Z,46.33
2022-12-15T19:35:51.006Z,35.90
2022-12-15T19:41:45.155Z,35.50
2022-12-15T19:44:15.867Z,40.63
2022-12-15T19:46:43.689Z,34.72
2022-12-15T19:49:10.790Z,35.63
2022-12-15T19:51:39.098Z,37.40
2022-12-15T19:54:06.184Z,31.27
2022-12-15T19:56:33.101Z,36.20
2022-12-15T19:59:00.099Z,46.30
2022-12-15T20:01:27.142Z,39.15
2022-12-15T20:03:54.359Z,34.30
2022-12-15T20:06:25.813Z,35.08
2022-12-15T20:08:57.512Z,39.65
2022-12-15T20:11:37.877Z,41.47
2022-12-15T20:14:17.886Z,42.60
2022-12-15T20:16:45.033Z,32.28
2022-12-15T20:19:12.139Z,34.13
2022-12-15T20:21:41.301Z,34.72
2022-12-15T20:24:15.423Z,33.60
2022-12-15T20:26:43.649Z,37.95
2022-12-15T20:29:30.723Z,34.42
2022-12-15T20:31:59.170Z,37.03
2022-12-15T20:34:26.203Z,26.58
2022-12-15T20:36:53.110Z,32.67
2022-12-15T20:39:27.182Z,33.40
2022-12-15T20:41:55.488Z,31.10
2022-12-15T20:44:23.685Z,31.92
2022-12-15T20:46:50.901Z,35.08
2022-12-15T20:49:22.766Z,34.53
2022-12-15T20:51:50.674Z,28.98
2022-12-15T20:54:21.377Z,32.53
2022-12-15T20:56:49.673Z,33.80
2022-12-15T20:59:17.724Z,31.67
2022-12-15T21:01:45.154Z,41.00
2022-12-15T21:04:28.705Z,32.35
2022-12-15T21:06:56.575Z,29.95
2022-12-15T21:09:30.064Z,27.42
